Strona główna
METAR-TAF:

METAR-TAF

Lotnisko :

Kuwejt, Kuwejt

Port lotniczy Kuwejt

Szerokość geograficzna: 29-13N, Długość geograficzna: 047-59E, wysokość: 55 m

Aktualna obserwacja pogody

Raport powstał 34 minut temu, godzina 05:00 UTC
Cisza
Temperatura 9°C
Wilgotność 66%
Ciśnienie 1018 hPa
Widzialność: 7000 m
bezchmurnie

METAR: OKBK 180500Z 00000KT 7000 SKC 09/03 Q1018 NOSIG

czas: 08:34 (05:34 UTC)

Prognoza

Raport powstał 12 godziny i 49 minut temu, godzina 16:45 UTC
Prognoza ważna od 17 godzina 18 UTC do 18 godzina 24 UTC
Wiatr 3 kt z kierunków zmiennych
Widzialność: 8000 m
Stopniowe zmiany
od 18 godzina 14 UTC do 18 godzina 16 UTC
Wiatr 12 kt od południowo-południowy wschód

TAF: OKBK 171645Z 1718/1824 VRB03KT 8000 NSC BECMG 1814/1816 15012KT

Obserwacja i prognoza pogody dla ponad 4000 lotnisk (raport METAR i TAF).

Dostępne stacje oznaczono żółtymi i czerwonymi punktami na mapie.

Najedź kursorem aby zobaczyć nazwę stacji.

Kliknij aby zobaczyć obserwacje i prognozy pogody.

Aby zmienić mapę: kliknij na zielony przycisk z czarnym krzyżykiem, aby powiększyć; na zielony przycisk z myślnikiem, aby pomniejszyć; na zielone strzałki, aby przejść do map sąsiednich.


METAR-TAF: